Anjeliersgracht — PCGQ — position and weather

sailwx.info

Track history (hours):
 
Tides and Currents Weather Stations Pressure Air Temp Water Temp Dewpoint Dewpoint Depression Visibility Wind Speed Wind Dir Waves Ship Positions

Anjeliersgracht

Last reported at 2016-May-03 00:33 UTC. Time now 2016-May-03 01:06 UTC.
Position N 44°19' E 008°30'.

Length 130 m; beam 19 m; draft 9 m.

Type: Cargo ship. MMSI: 244716000.

Date/timePositionNaut miles runAvg speedWind from/ knotsBaromVisibWave heightAir tempDewpointWater temp
2016-May-03 00:33N 44°19' E 008°30'0 0.0
2016-May-02 23:30N 44°19' E 008°30'0 0.0
2016-May-02 22:30N 44°19' E 008°30'0 0.0
2016-May-02 21:33N 44°19' E 008°30'0 0.0
2016-May-02 20:30N 44°19' E 008°30'0 0.0
2016-May-02 19:33N 44°19' E 008°30'0 0.0
2016-May-02 18:30N 44°19' E 008°30'0 0.0
2016-May-02 17:33N 44°19' E 008°30'0 0.0
2016-May-02 16:33N 44°19' E 008°30'0 0.0
2016-May-02 15:30N 44°19' E 008°30'0 0.0
2016-May-02 14:30N 44°19' E 008°30'0 0.0
2016-May-02 13:33N 44°19' E 008°30'0 0.0
2016-May-02 12:30N 44°19' E 008°30'0 0.0
2016-May-02 11:30N 44°19' E 008°30'0 0.0
2016-May-02 10:30N 44°19' E 008°30'0 0.0
2016-May-02 09:30N 44°19' E 008°30'0 0.0
2016-May-02 08:30N 44°19' E 008°30'0 0.0
2016-May-02 07:30N 44°19' E 008°30'0 0.0
2016-May-02 06:33N 44°19' E 008°30'5 5.0
2016-May-02 05:33N 44°14' E 008°31'8 8.4
2016-May-02 04:33N 44°06' E 008°27'8 8.1
2016-May-02 03:33N 43°59' E 008°22'8 7.5
2016-May-02 02:33N 43°53' E 008°16'26 7.4
2016-May-01 23:03N 43°41' E 007°44'4 7.4
2016-May-01 22:33N 43°39' E 007°39'8 8.1
2016-May-01 21:30N 43°39' E 007°27'7 7.0
2016-May-01 20:33N 43°41' E 007°19'1 0.7
2016-May-01 19:26N 43°42' E 007°19'0 0.0
2016-May-01 18:14N 43°42' E 007°19'0 0.0
2016-May-01 17:32N 43°42' E 007°19'0 0.1
2016-May-01 16:32N 43°42' E 007°19'0 0.1
2016-May-01 15:20N 43°41' E 007°19'1 0.7
2016-May-01 14:33N 43°41' E 007°19'34913.3
2016-Apr-30 12:22N 40°39' E 014°01'1113.5
2016-Apr-30 11:33N 40°45' E 014°12'6 0.5
2016-Apr-29 22:19N 40°50' E 014°17'0 0.0
2016-Apr-29 21:31N 40°50' E 014°17'0 0.0
2016-Apr-29 20:25N 40°50' E 014°17'0 0.0
2016-Apr-29 19:31N 40°50' E 014°17'0 0.0
2016-Apr-29 18:31N 40°50' E 014°17'0 0.1
2016-Apr-29 17:33N 40°50' E 014°17'5 5.2
2016-Apr-29 16:33N 40°45' E 014°16'1313.5
2016-Apr-29 15:33N 40°33' E 014°08'11513.7
2016-Apr-29 07:08N 38°52' E 015°19'814.0
2016-Apr-29 06:33N 38°45' E 015°24'1414.1
2016-Apr-29 05:33N 38°32' E 015°32'1413.7
2016-Apr-29 04:33N 38°20' E 015°40'1010.2
2016-Apr-29 03:33N 38°10' E 015°37'1211.8
2016-Apr-29 02:33N 37°58' E 015°35'1313.2
2016-Apr-29 01:33N 37°45' E 015°34'1312.8
2016-Apr-29 00:31N 37°32' E 015°32'1313.0
2016-Apr-28 23:33N 37°20' E 015°30'5612.7
2016-Apr-28 19:10N 36°27' E 015°07'2412.8
2016-Apr-28 17:16N 36°09' E 014°47'912.8
2016-Apr-28 16:33N 36°02' E 014°40'10 0.4
2016-Apr-27 16:23N 35°54' E 014°31'4 5.2
2016-Apr-27 15:33N 35°57' E 014°36'5 4.7
2016-Apr-27 14:33N 35°60' E 014°31'1211.5
2016-Apr-27 13:33N 36°07' E 014°21'1413.7
2016-Apr-27 12:33N 36°14' E 014°06'1413.9
2016-Apr-27 11:33N 36°20' E 013°51'52113.6
2016-Apr-25 21:13N 38°58' E 003°24'914.2
2016-Apr-25 20:33N 39°01' E 003°12'1414.0
2016-Apr-25 19:33N 39°05' E 002°54'1313.3
2016-Apr-25 18:33N 39°16' E 002°45'1413.6
2016-Apr-25 17:33N 39°29' E 002°40'4 4.2
2016-Apr-25 16:31N 39°33' E 002°38'0 0.0
2016-Apr-25 15:28N 39°33' E 002°38'0 0.0
2016-Apr-25 14:31N 39°33' E 002°38'0 0.0
2016-Apr-25 13:28N 39°33' E 002°38'0 0.0
2016-Apr-25 12:31N 39°33' E 002°38'0 0.0
2016-Apr-25 11:31N 39°33' E 002°38'0 0.0
2016-Apr-25 10:31N 39°33' E 002°38'0 0.0
2016-Apr-25 09:31N 39°33' E 002°38'0 0.0
2016-Apr-25 08:28N 39°33' E 002°38'0 0.0
2016-Apr-25 07:31N 39°33' E 002°38'0 0.0
2016-Apr-25 06:31N 39°33' E 002°38'1 1.1
2016-Apr-25 05:33N 39°32' E 002°39'1110.8
2016-Apr-25 04:33N 39°24' E 002°31'1211.5
2016-Apr-25 03:33N 39°15' E 002°21'6 5.5
2016-Apr-25 02:33N 39°10' E 002°16'6 5.9
2016-Apr-25 01:33N 39°05' E 002°12'9 9.4
2016-Apr-25 00:33N 38°58' E 002°05'10 9.4
2016-Apr-24 23:32N 38°51' E 001°57'12611.4
2016-Apr-24 12:29N 37°32' W 000°08'1212.8
2016-Apr-24 11:34N 37°26' W 000°21'2512.7
2016-Apr-24 09:33N 37°11' W 000°46'23011.5
2016-Apr-23 13:33N 36°09' W 005°22'2 0.3
2016-Apr-23 06:19N 36°07' W 005°22'7 8.9
2016-Apr-23 05:34N 36°00' W 005°20'  
Track history (hours):
 
Tides and Currents Weather Stations Pressure Air Temp Water Temp Dewpoint Dewpoint Depression Visibility Wind Speed Wind Dir Waves Ship Positions

Anjeliersgracht

Last reported at 2016-May-03 00:33 UTC. Time now 2016-May-03 01:06 UTC.
Position N 44°19' E 008°30'.

Length 130 m; beam 19 m; draft 9 m.

Type: Cargo ship. MMSI: 244716000.

Date/timePositionNaut miles runAvg speedWind from/ knotsBaromVisibWave heightAir tempDewpointWater temp
2016-May-03 00:33N 44°19' E 008°30'0 0.0
2016-May-02 23:30N 44°19' E 008°30'0 0.0
2016-May-02 22:30N 44°19' E 008°30'0 0.0
2016-May-02 21:33N 44°19' E 008°30'0 0.0
2016-May-02 20:30N 44°19' E 008°30'0 0.0
2016-May-02 19:33N 44°19' E 008°30'0 0.0
2016-May-02 18:30N 44°19' E 008°30'0 0.0
2016-May-02 17:33N 44°19' E 008°30'0 0.0
2016-May-02 16:33N 44°19' E 008°30'0 0.0
2016-May-02 15:30N 44°19' E 008°30'0 0.0
2016-May-02 14:30N 44°19' E 008°30'0 0.0
2016-May-02 13:33N 44°19' E 008°30'0 0.0
2016-May-02 12:30N 44°19' E 008°30'0 0.0
2016-May-02 11:30N 44°19' E 008°30'0 0.0
2016-May-02 10:30N 44°19' E 008°30'0 0.0
2016-May-02 09:30N 44°19' E 008°30'0 0.0
2016-May-02 08:30N 44°19' E 008°30'0 0.0
2016-May-02 07:30N 44°19' E 008°30'0 0.0
2016-May-02 06:33N 44°19' E 008°30'5 5.0
2016-May-02 05:33N 44°14' E 008°31'8 8.4
2016-May-02 04:33N 44°06' E 008°27'8 8.1
2016-May-02 03:33N 43°59' E 008°22'8 7.5
2016-May-02 02:33N 43°53' E 008°16'26 7.4
2016-May-01 23:03N 43°41' E 007°44'4 7.4
2016-May-01 22:33N 43°39' E 007°39'8 8.1
2016-May-01 21:30N 43°39' E 007°27'7 7.0
2016-May-01 20:33N 43°41' E 007°19'1 0.7
2016-May-01 19:26N 43°42' E 007°19'0 0.0
2016-May-01 18:14N 43°42' E 007°19'0 0.0
2016-May-01 17:32N 43°42' E 007°19'0 0.1
2016-May-01 16:32N 43°42' E 007°19'0 0.1
2016-May-01 15:20N 43°41' E 007°19'1 0.7
2016-May-01 14:33N 43°41' E 007°19'34913.3
2016-Apr-30 12:22N 40°39' E 014°01'1113.5
2016-Apr-30 11:33N 40°45' E 014°12'6 0.5
2016-Apr-29 22:19N 40°50' E 014°17'0 0.0
2016-Apr-29 21:31N 40°50' E 014°17'0 0.0
2016-Apr-29 20:25N 40°50' E 014°17'0 0.0
2016-Apr-29 19:31N 40°50' E 014°17'0 0.0
2016-Apr-29 18:31N 40°50' E 014°17'0 0.1
2016-Apr-29 17:33N 40°50' E 014°17'5 5.2
2016-Apr-29 16:33N 40°45' E 014°16'1313.5
2016-Apr-29 15:33N 40°33' E 014°08'11513.7
2016-Apr-29 07:08N 38°52' E 015°19'814.0
2016-Apr-29 06:33N 38°45' E 015°24'1414.1
2016-Apr-29 05:33N 38°32' E 015°32'1413.7
2016-Apr-29 04:33N 38°20' E 015°40'1010.2
2016-Apr-29 03:33N 38°10' E 015°37'1211.8
2016-Apr-29 02:33N 37°58' E 015°35'1313.2
2016-Apr-29 01:33N 37°45' E 015°34'1312.8
2016-Apr-29 00:31N 37°32' E 015°32'1313.0
2016-Apr-28 23:33N 37°20' E 015°30'5612.7
2016-Apr-28 19:10N 36°27' E 015°07'2412.8
2016-Apr-28 17:16N 36°09' E 014°47'912.8
2016-Apr-28 16:33N 36°02' E 014°40'10 0.4
2016-Apr-27 16:23N 35°54' E 014°31'4 5.2
2016-Apr-27 15:33N 35°57' E 014°36'5 4.7
2016-Apr-27 14:33N 35°60' E 014°31'1211.5
2016-Apr-27 13:33N 36°07' E 014°21'1413.7
2016-Apr-27 12:33N 36°14' E 014°06'1413.9
2016-Apr-27 11:33N 36°20' E 013°51'52113.6
2016-Apr-25 21:13N 38°58' E 003°24'914.2
2016-Apr-25 20:33N 39°01' E 003°12'1414.0
2016-Apr-25 19:33N 39°05' E 002°54'1313.3
2016-Apr-25 18:33N 39°16' E 002°45'1413.6
2016-Apr-25 17:33N 39°29' E 002°40'4 4.2
2016-Apr-25 16:31N 39°33' E 002°38'0 0.0
2016-Apr-25 15:28N 39°33' E 002°38'0 0.0
2016-Apr-25 14:31N 39°33' E 002°38'0 0.0
2016-Apr-25 13:28N 39°33' E 002°38'0 0.0
2016-Apr-25 12:31N 39°33' E 002°38'0 0.0
2016-Apr-25 11:31N 39°33' E 002°38'0 0.0
2016-Apr-25 10:31N 39°33' E 002°38'0 0.0
2016-Apr-25 09:31N 39°33' E 002°38'0 0.0
2016-Apr-25 08:28N 39°33' E 002°38'0 0.0
2016-Apr-25 07:31N 39°33' E 002°38'0 0.0
2016-Apr-25 06:31N 39°33' E 002°38'1 1.1
2016-Apr-25 05:33N 39°32' E 002°39'1110.8
2016-Apr-25 04:33N 39°24' E 002°31'1211.5
2016-Apr-25 03:33N 39°15' E 002°21'6 5.5
2016-Apr-25 02:33N 39°10' E 002°16'6 5.9
2016-Apr-25 01:33N 39°05' E 002°12'9 9.4
2016-Apr-25 00:33N 38°58' E 002°05'10 9.4
2016-Apr-24 23:32N 38°51' E 001°57'12611.4
2016-Apr-24 12:29N 37°32' W 000°08'1212.8
2016-Apr-24 11:34N 37°26' W 000°21'2512.7
2016-Apr-24 09:33N 37°11' W 000°46'23011.5
2016-Apr-23 13:33N 36°09' W 005°22'2 0.3
2016-Apr-23 06:19N 36°07' W 005°22'7 8.9
2016-Apr-23 05:34N 36°00' W 005°20'  

Dump ship's entire track history